Otterup, Denmark
Current Conditions -  °F | °C
As of 4:50 PM on Wednesday 22 Oct 2014 (Local Time) from EKOD Reporting Station
Broken Clouds Broken Clouds  
Wind Chill: 52°   Ceiling: 2000
Heat Index: 52°   Visibility: 6mi
Dew Point: 52°   Wind: 2mph
Humidity: 100%   Direction: 10°N
Pressure: 29.83"   Gusts: NA
Location:  55.52°N, 10.4°E
Report Text: EKOD 221450Z 01002KT 9999 BKN020 BKN045 11/11 Q1010
Loading
Personal Weather Stations






























Interactive Weather Map
Tropical Storm Tracking
New forecast layout! Learn more

10-Day Weather Forecast

Advertisements
Track Severe Weather on mobile